Terminal Aerodrome Forecast
Issued by NWS Tampa Bay Area, FL

Home | Current Version | Previous Version | Text Only | Print | Product List | Glossary On
Versions: 1 2 3 4 5 6 7 8 9 10 11 12 13 14 15
000
FTUS42 KTBW 310525
TAFFMY
TAF
KFMY 310525Z 3106/0106 17007KT P6SM VCSH SCT020 OVC080
     FM310700 16008KT P6SM VCSH SCT015 OVC100
     FM311400 20012G20KT P6SM VCSH SCT025 BKN050
     FM311800 20013G20KT 6SM -RA VCTS SCT020CB OVC050
     FM010000 18010G20KT 6SM RA SCT008 OVC020=

USA.gov is the U.S. government's official web portal to all federal, state and local government web resources and services.